Stow, Ohio
Current Conditions -  °F | °C
As of 7:54 AM on Wednesday 22 Oct 2014 (Local Time) from KAKR Reporting Station
Overcast Overcast  
Wind Chill: 44°   Ceiling: 700
Heat Index: 47°   Visibility: 8mi
Dew Point: 44°   Wind: 7mph
Humidity: 90%   Direction: 10°N
Pressure: 30.19"   Gusts: NA
Location:  41.17°N, 81.44°W
Report Text: KAKR 221154Z AUTO 01006KT 8SM OVC007 08/07 A3019 RMK AO2 RAB06E31 CIG 006V012 SLP226 P0000 60001 70017 T00830067 10089 20083 51020
Loading
Personal Weather Stations






























Interactive Weather Map
Tropical Storm Tracking
New forecast layout! Learn more

10-Day Weather Forecast

Advertisements
Track Severe Weather on mobile